Time;durP1;ratioP1;P1;durP2;ratioP2;P2;SDS_P1;SDS_P2;PMS_P1;PMS_P2;Temp;Humidity;BMP_temperature;BMP_pressure;BME280_temperature;BME280_humidity;BME280_pressure;Samples;Min_cycle;Max_cycle;Signal;HPM_P1;HPM_P2
2022/09/14 00:00:47;;;;;;;6.17;1.93;;;14.00;99.90;;;;;;5118041;27;20674;-72
2022/09/14 00:03:14;;;;;;;3.13;1.90;;;14.00;99.90;;;;;;5112968;27;20198;-71
2022/09/14 00:05:43;;;;;;;3.50;1.97;;;13.80;99.90;;;;;;5123508;27;20201;-72
2022/09/14 00:08:10;;;;;;;6.87;1.90;;;13.70;99.90;;;;;;5126539;27;20650;-71
2022/09/14 00:10:40;;;;;;;5.63;2.00;;;13.70;99.90;;;;;;5092581;28;20214;-72
2022/09/14 00:13:07;;;;;;;3.10;1.97;;;13.70;99.90;;;;;;5114858;27;20236;-71
2022/09/14 00:15:37;;;;;;;7.40;2.03;;;13.70;99.90;;;;;;5130946;27;20192;-71
2022/09/14 00:18:04;;;;;;;4.67;2.10;;;13.60;99.90;;;;;;5109373;27;20237;-71
2022/09/14 00:20:31;;;;;;;5.17;1.90;;;13.70;99.90;;;;;;5092117;28;20657;-71
2022/09/14 00:22:59;;;;;;;4.77;1.90;;;13.70;99.90;;;;;;5111801;28;20239;-72
2022/09/14 00:25:27;;;;;;;5.90;2.23;;;13.70;99.90;;;;;;5120165;27;20197;-72
2022/09/14 00:27:54;;;;;;;4.07;1.75;;;13.70;99.90;;;;;;5099896;27;20674;-71
2022/09/14 00:30:23;;;;;;;3.80;2.10;;;13.60;99.90;;;;;;5103430;28;20235;-72
2022/09/14 00:32:50;;;;;;;6.95;2.42;;;13.60;99.90;;;;;;5126777;28;20235;-71
2022/09/14 00:35:17;;;;;;;5.67;2.13;;;13.50;99.90;;;;;;5099469;28;20213;-71
2022/09/14 00:37:44;;;;;;;4.55;1.80;;;13.40;99.90;;;;;;5118065;28;20250;-71
2022/09/14 00:40:13;;;;;;;6.03;2.75;;;13.50;99.90;;;;;;5120160;28;20227;-71
2022/09/14 00:42:39;;;;;;;5.80;2.23;;;13.50;99.90;;;;;;5120684;28;20200;-72
2022/09/14 00:45:13;;;;;;;5.33;1.93;;;13.60;99.90;;;;;;5126421;27;20200;-72
2022/09/14 00:47:42;;;;;;;3.77;1.97;;;13.60;99.90;;;;;;5113186;28;20205;-75
2022/09/14 00:50:10;;;;;;;6.13;2.60;;;13.50;99.90;;;;;;5122769;28;20674;-75
2022/09/14 00:52:40;;;;;;;6.53;1.87;;;13.50;99.90;;;;;;5116266;28;20250;-75
2022/09/14 00:55:11;;;;;;;7.10;2.30;;;13.50;99.90;;;;;;5105975;28;20216;-75
2022/09/14 00:57:44;;;;;;;5.70;2.20;;;13.40;99.90;;;;;;5113344;28;20622;-75
2022/09/14 01:00:14;;;;;;;5.53;1.80;;;13.40;99.90;;;;;;5125149;27;20235;-75
2022/09/14 01:02:41;;;;;;;8.30;2.60;;;13.40;99.90;;;;;;5106570;28;20196;-75
2022/09/14 01:05:11;;;;;;;5.60;2.40;;;13.40;99.90;;;;;;5112054;28;20193;-75
2022/09/14 01:08:00;;;;;;;7.80;2.07;;;13.50;99.90;;;;;;5132583;27;20193;-75
2022/09/14 01:10:37;;;;;;;6.73;2.47;;;13.50;99.90;;;;;;5115387;28;20212;-74
2022/09/14 01:13:17;;;;;;;7.50;2.30;;;13.50;99.90;;;;;;5121423;28;20201;-75
2022/09/14 01:15:54;;;;;;;5.37;2.10;;;13.40;99.90;;;;;;5092034;28;20209;-75
2022/09/14 01:18:26;;;;;;;4.03;2.07;;;13.50;99.90;;;;;;5074639;28;20205;-74
2022/09/14 01:20:58;;;;;;;4.30;1.83;;;13.50;99.90;;;;;;5103717;28;20212;-75
2022/09/14 01:23:35;;;;;;;6.43;2.20;;;13.50;99.90;;;;;;5117964;28;20192;-75
2022/09/14 01:26:35;;;;;;;4.60;2.30;;;13.40;99.90;;;;;;5101282;28;20212;-74
2022/09/14 01:29:09;;;;;;;6.53;2.60;;;13.50;99.90;;;;;;5112249;27;20543;-75
2022/09/14 01:31:43;;;;;;;6.67;2.17;;;13.40;99.90;;;;;;5115529;28;20201;-75
2022/09/14 01:34:14;;;;;;;6.23;2.50;;;13.40;99.90;;;;;;5081586;28;20257;-75
2022/09/14 01:36:47;;;;;;;4.97;2.10;;;13.50;99.90;;;;;;5123502;28;20585;-75
2022/09/14 01:39:16;;;;;;;5.27;2.17;;;13.50;99.90;;;;;;5109151;28;20266;-75
2022/09/14 01:41:43;;;;;;;5.50;1.93;;;13.50;99.90;;;;;;5104009;28;20204;-75
2022/09/14 01:44:17;;;;;;;4.27;2.10;;;13.50;99.90;;;;;;5119278;27;20638;-75
2022/09/14 01:46:48;;;;;;;7.33;2.73;;;13.50;99.90;;;;;;5116592;27;20201;-75
2022/09/14 01:49:19;;;;;;;4.37;2.10;;;13.50;99.90;;;;;;5108601;27;20192;-75
2022/09/14 01:51:48;;;;;;;5.80;2.00;;;13.50;99.90;;;;;;5113422;27;20212;-75
2022/09/14 01:54:18;;;;;;;8.27;2.43;;;13.40;99.90;;;;;;5102524;27;20205;-75
2022/09/14 01:56:51;;;;;;;6.63;2.10;;;13.30;99.90;;;;;;5115936;27;20275;-75
2022/09/14 01:59:23;;;;;;;6.10;2.03;;;13.30;99.90;;;;;;5124104;27;20228;-75
2022/09/14 02:01:53;;;;;;;6.53;2.30;;;13.30;99.90;;;;;;5116214;27;20241;-75
2022/09/14 02:04:27;;;;;;;5.10;2.10;;;13.20;99.90;;;;;;5114107;27;20205;-75
2022/09/14 02:06:55;;;;;;;4.97;2.03;;;13.10;99.90;;;;;;5115065;27;20237;-75
2022/09/14 02:09:25;;;;;;;9.73;2.30;;;13.00;99.90;;;;;;5122103;27;20199;-75
2022/09/14 02:11:53;;;;;;;6.03;1.90;;;12.90;99.90;;;;;;5113662;27;20208;-75
2022/09/14 02:14:22;;;;;;;6.07;2.23;;;13.00;99.90;;;;;;5117225;27;20227;-75
2022/09/14 02:16:49;;;;;;;5.43;1.93;;;13.10;99.90;;;;;;5134349;27;20211;-75
2022/09/14 02:19:16;;;;;;;4.63;1.97;;;13.20;99.90;;;;;;5098611;28;20562;-75
2022/09/14 02:21:42;;;;;;;5.40;2.40;;;13.30;99.90;;;;;;5103764;27;20287;-75
2022/09/14 02:24:10;;;;;;;4.73;2.03;;;13.30;99.90;;;;;;5134921;27;20196;-75
2022/09/14 02:26:38;;;;;;;6.03;2.20;;;13.30;99.90;;;;;;5117857;27;20201;-75
2022/09/14 02:29:05;;;;;;;4.83;2.10;;;13.30;99.90;;;;;;5116193;27;20192;-75
2022/09/14 02:31:46;;;;;;;4.10;2.23;;;13.30;99.90;;;;;;5110144;28;20211;-75
2022/09/14 02:34:24;;;;;;;8.03;2.30;;;13.20;99.90;;;;;;5076797;28;20205;-75
2022/09/14 02:37:00;;;;;;;10.40;2.57;;;13.30;99.90;;;;;;5086884;28;20213;-75
2022/09/14 02:39:39;;;;;;;7.60;2.50;;;13.30;99.90;;;;;;5105621;27;20217;-75
2022/09/14 02:42:17;;;;;;;5.20;2.10;;;13.20;99.90;;;;;;5099908;27;20200;-75
2022/09/14 02:44:54;;;;;;;8.00;2.43;;;13.30;99.90;;;;;;5122885;27;20200;-75
2022/09/14 02:47:27;;;;;;;5.87;2.10;;;13.30;99.90;;;;;;5097205;28;20245;-75
2022/09/14 02:50:03;;;;;;;4.17;1.77;;;13.30;99.90;;;;;;5105633;27;20201;-75
2022/09/14 02:52:34;;;;;;;9.60;2.87;;;13.30;99.90;;;;;;5107661;28;20197;-74
2022/09/14 02:55:06;;;;;;;2.97;1.70;;;13.20;99.90;;;;;;5118624;27;20210;-74
2022/09/14 02:57:42;;;;;;;5.63;2.07;;;13.00;99.90;;;;;;5119597;27;20614;-74
2022/09/14 03:00:09;;;;;;;8.37;2.00;;;12.70;99.90;;;;;;5116282;27;20216;-74
2022/09/14 03:02:38;;;;;;;8.43;2.53;;;12.80;99.90;;;;;;5114167;27;20189;-73
2022/09/14 03:05:05;;;;;;;7.70;2.33;;;12.70;99.90;;;;;;5105306;27;20201;-75
2022/09/14 03:07:32;;;;;;;4.37;1.90;;;12.70;99.90;;;;;;5121787;27;20196;-74
2022/09/14 03:09:59;;;;;;;7.00;2.10;;;12.80;99.90;;;;;;5113173;27;20639;-75
2022/09/14 03:12:26;;;;;;;3.90;1.80;;;12.80;99.90;;;;;;5118042;27;20200;-74
2022/09/14 03:14:52;;;;;;;5.67;1.80;;;12.90;99.90;;;;;;5117455;27;20219;-75
2022/09/14 03:17:19;;;;;;;5.70;1.93;;;12.90;99.90;;;;;;5115963;27;20202;-75
2022/09/14 03:19:47;;;;;;;5.27;2.53;;;12.80;99.90;;;;;;5133998;27;20217;-75
2022/09/14 03:22:15;;;;;;;4.57;2.10;;;12.90;99.90;;;;;;5097671;27;20241;-75
2022/09/14 03:24:42;;;;;;;7.90;2.10;;;12.90;99.90;;;;;;5093918;28;20252;-74
2022/09/14 03:27:09;;;;;;;4.57;2.03;;;12.90;99.90;;;;;;5094287;28;20552;-75
2022/09/14 03:29:35;;;;;;;7.77;2.20;;;12.80;99.90;;;;;;5093106;28;20193;-75
2022/09/14 03:32:02;;;;;;;3.73;2.10;;;12.80;99.90;;;;;;5093348;28;20569;-75
2022/09/14 03:34:29;;;;;;;5.73;2.33;;;12.70;99.90;;;;;;5093647;28;20643;-75
2022/09/14 03:36:57;;;;;;;8.47;3.73;;;12.60;99.90;;;;;;5093652;28;20587;-75
2022/09/14 03:39:24;;;;;;;7.03;2.40;;;12.60;99.90;;;;;;5092913;28;20247;-75
2022/09/14 03:41:51;;;;;;;5.63;2.10;;;12.70;99.90;;;;;;5093026;28;20202;-75
2022/09/14 03:44:18;;;;;;;7.27;2.63;;;12.70;99.90;;;;;;5093316;28;20209;-74
2022/09/14 03:46:45;;;;;;;4.17;1.87;;;12.80;99.90;;;;;;5093596;28;20205;-75
2022/09/14 03:49:11;;;;;;;6.40;2.03;;;12.80;99.90;;;;;;5093411;28;20204;-75
2022/09/14 03:51:38;;;;;;;4.70;2.57;;;12.70;99.90;;;;;;5111698;27;20196;-75
2022/09/14 03:54:07;;;;;;;6.73;2.20;;;12.70;99.90;;;;;;5127920;27;20200;-75
2022/09/14 03:56:34;;;;;;;6.20;2.33;;;12.70;99.90;;;;;;5115293;27;20215;-75
2022/09/14 03:59:01;;;;;;;4.47;2.20;;;12.60;99.90;;;;;;5113158;28;20197;-74
2022/09/14 04:01:27;;;;;;;3.83;1.90;;;12.50;99.90;;;;;;5106070;28;20229;-74
2022/09/14 04:03:55;;;;;;;4.17;2.50;;;12.10;99.90;;;;;;5093136;28;20197;-74
2022/09/14 04:06:22;;;;;;;2.90;2.60;;;12.00;99.90;;;;;;5092182;28;20216;-74
2022/09/14 04:08:49;;;;;;;7.13;3.20;;;12.00;99.90;;;;;;5093087;28;20193;-78
2022/09/14 04:11:18;;;;;;;6.10;2.07;;;12.20;99.90;;;;;;5091318;28;20212;-79
2022/09/14 04:13:46;;;;;;;6.27;1.87;;;12.20;99.90;;;;;;5093074;28;20205;-79
2022/09/14 04:16:14;;;;;;;5.47;2.67;;;12.10;99.90;;;;;;5093255;28;20209;-79
2022/09/14 04:18:40;;;;;;;6.23;3.07;;;12.30;99.90;;;;;;5092680;28;20205;-79
2022/09/14 04:21:10;;;;;;;3.43;2.70;;;12.20;99.90;;;;;;5092532;28;20226;-79
2022/09/14 04:23:37;;;;;;;6.63;3.30;;;12.00;99.90;;;;;;5092325;28;20209;-79
2022/09/14 04:26:11;;;;;;;7.43;3.53;;;12.00;99.90;;;;;;5093004;28;20209;-79
2022/09/14 04:28:39;;;;;;;6.50;4.00;;;11.90;99.90;;;;;;5074995;28;20233;-79
2022/09/14 04:31:06;;;;;;;7.03;3.00;;;12.00;99.90;;;;;;5111837;28;20200;-79
2022/09/14 04:33:35;;;;;;;6.90;2.67;;;12.00;99.90;;;;;;5116531;28;20547;-79
2022/09/14 04:36:05;;;;;;;2.97;2.23;;;12.20;99.90;;;;;;5110388;28;20647;-79
2022/09/14 04:38:32;;;;;;;4.00;2.00;;;12.20;99.90;;;;;;5105701;28;20208;-79
2022/09/14 04:41:00;;;;;;;5.13;2.60;;;12.20;99.90;;;;;;5092305;28;20226;-79
2022/09/14 04:43:27;;;;;;;7.10;3.07;;;12.30;99.90;;;;;;5092731;28;20672;-79
2022/09/14 04:46:02;;;;;;;6.43;3.57;;;11.90;99.90;;;;;;5092535;28;20186;-79
2022/09/14 04:48:32;;;;;;;4.47;2.90;;;11.70;99.90;;;;;;5092653;28;20213;-79
2022/09/14 04:51:01;;;;;;;6.13;2.97;;;11.80;99.90;;;;;;5092225;28;20209;-79
2022/09/14 04:53:28;;;;;;;8.13;2.90;;;11.70;99.90;;;;;;5092064;28;20606;-80
2022/09/14 04:55:59;;;;;;;5.80;2.63;;;11.80;99.90;;;;;;5103738;28;20201;-79
2022/09/14 04:58:27;;;;;;;5.90;2.80;;;11.80;99.90;;;;;;5092720;28;20231;-80
2022/09/14 05:00:54;;;;;;;6.67;2.80;;;11.90;99.90;;;;;;5091671;28;20229;-79
2022/09/14 05:03:22;;;;;;;3.97;2.90;;;11.90;99.90;;;;;;5092430;28;20233;-79
2022/09/14 05:05:49;;;;;;;4.93;2.53;;;11.90;99.90;;;;;;5092568;28;20654;-79
2022/09/14 05:08:16;;;;;;;5.50;2.93;;;12.00;99.90;;;;;;5092670;28;20201;-79
2022/09/14 05:10:43;;;;;;;10.07;2.87;;;12.00;99.90;;;;;;5092019;28;20206;-79
2022/09/14 05:13:10;;;;;;;4.33;2.17;;;12.10;99.90;;;;;;5092299;28;20570;-79
2022/09/14 05:15:36;;;;;;;5.83;2.47;;;12.20;99.90;;;;;;5119215;28;20553;-79
2022/09/14 05:18:03;;;;;;;10.07;2.83;;;12.20;99.90;;;;;;5112432;28;20204;-80
2022/09/14 05:20:31;;;;;;;6.40;3.10;;;12.20;99.90;;;;;;5112644;28;20216;-79
2022/09/14 05:22:58;;;;;;;4.43;2.30;;;12.30;99.90;;;;;;5096488;28;20406;-79
2022/09/14 05:25:25;;;;;;;4.20;2.70;;;12.20;99.90;;;;;;5096545;28;20201;-79
2022/09/14 05:27:52;;;;;;;5.93;3.00;;;12.10;99.90;;;;;;5095915;28;20700;-79
2022/09/14 05:30:20;;;;;;;4.83;2.90;;;12.30;99.90;;;;;;5094983;28;20201;-79
2022/09/14 05:32:47;;;;;;;9.77;5.23;;;12.30;99.90;;;;;;5110349;28;20228;-79
2022/09/14 05:35:14;;;;;;;7.43;3.80;;;12.40;99.90;;;;;;5116494;28;20201;-79
2022/09/14 05:37:42;;;;;;;4.23;3.53;;;12.40;99.90;;;;;;5102370;28;20220;-80
2022/09/14 05:40:09;;;;;;;10.10;4.17;;;12.40;99.90;;;;;;5095342;28;20232;-79
2022/09/14 05:42:36;;;;;;;5.23;4.40;;;12.40;99.90;;;;;;5096966;28;20216;-80
2022/09/14 05:45:05;;;;;;;6.93;3.53;;;12.50;99.90;;;;;;5106183;28;20208;-79
2022/09/14 05:47:32;;;;;;;7.53;3.10;;;12.50;99.90;;;;;;5111909;27;20197;-79
2022/09/14 05:49:59;;;;;;;5.97;2.90;;;12.50;99.90;;;;;;5099655;27;20201;-79
2022/09/14 05:52:25;;;;;;;5.47;3.30;;;12.70;99.90;;;;;;5103133;28;20197;-80
2022/09/14 05:54:53;;;;;;;4.97;2.50;;;12.60;99.90;;;;;;5115163;28;20197;-79
2022/09/14 05:57:20;;;;;;;4.03;2.43;;;12.70;99.90;;;;;;5111701;28;20565;-79
2022/09/14 05:59:47;;;;;;;6.70;2.90;;;12.80;99.90;;;;;;5095038;28;20198;-80
2022/09/14 06:02:14;;;;;;;6.23;2.97;;;12.80;99.90;;;;;;5095271;28;20209;-80
2022/09/14 06:04:41;;;;;;;3.20;2.33;;;13.00;99.90;;;;;;5095620;28;20202;-79
2022/09/14 06:07:08;;;;;;;6.87;2.50;;;13.10;99.90;;;;;;5095564;28;20201;-79
2022/09/14 06:09:34;;;;;;;5.50;2.50;;;13.20;99.90;;;;;;5095482;28;20202;-79
2022/09/14 06:12:03;;;;;;;7.13;2.60;;;13.20;99.90;;;;;;5094746;28;20198;-80
2022/09/14 06:14:30;;;;;;;8.23;2.67;;;13.30;99.90;;;;;;5094690;28;20652;-79
2022/09/14 06:16:57;;;;;;;4.03;2.50;;;13.30;99.90;;;;;;5095000;28;20205;-80
2022/09/14 06:19:24;;;;;;;6.83;2.70;;;13.40;99.90;;;;;;5095058;28;20213;-80
2022/09/14 06:21:52;;;;;;;5.83;2.40;;;13.50;99.90;;;;;;5094371;28;20222;-79
2022/09/14 06:24:18;;;;;;;7.40;2.80;;;13.50;99.90;;;;;;5094301;28;20356;-79
2022/09/14 06:26:45;;;;;;;7.00;2.70;;;13.50;99.90;;;;;;5095044;28;20210;-80
2022/09/14 06:29:13;;;;;;;5.10;2.70;;;13.40;99.90;;;;;;5094558;28;20198;-80
2022/09/14 06:31:40;;;;;;;7.33;2.67;;;13.40;99.90;;;;;;5094446;28;20217;-79
2022/09/14 06:34:07;;;;;;;10.37;3.00;;;13.50;99.90;;;;;;5095030;28;20197;-80
2022/09/14 06:36:34;;;;;;;7.77;2.57;;;13.50;99.90;;;;;;5094582;28;20217;-79
2022/09/14 06:39:00;;;;;;;6.60;2.70;;;13.60;99.90;;;;;;5094860;28;20212;-79
2022/09/14 06:41:29;;;;;;;3.83;2.40;;;13.70;99.90;;;;;;5102566;28;20209;-79
2022/09/14 06:43:57;;;;;;;6.27;2.90;;;13.70;99.90;;;;;;5113029;28;20670;-79
2022/09/14 06:46:28;;;;;;;9.93;2.70;;;13.70;99.90;;;;;;5094005;28;20205;-79
2022/09/14 06:48:58;;;;;;;5.93;2.23;;;13.70;99.90;;;;;;5094459;28;20211;-79
2022/09/14 06:51:27;;;;;;;5.93;2.30;;;13.80;99.90;;;;;;5093711;28;20205;-80
2022/09/14 06:53:58;;;;;;;3.67;2.10;;;13.90;99.90;;;;;;5094112;28;20204;-80
2022/09/14 06:56:25;;;;;;;6.67;2.17;;;14.00;99.90;;;;;;5094635;28;20255;-80
2022/09/14 06:58:52;;;;;;;7.07;2.65;;;13.90;99.90;;;;;;5094447;28;20193;-80
2022/09/14 07:01:20;;;;;;;5.47;3.00;;;14.00;99.90;;;;;;5093288;28;20287;-79
2022/09/14 07:03:51;;;;;;;7.57;2.40;;;14.10;99.90;;;;;;5094367;28;20210;-80
2022/09/14 07:06:21;;;;;;;7.73;3.43;;;14.20;99.90;;;;;;5094276;28;20544;-80
2022/09/14 07:08:48;;;;;;;6.53;2.90;;;14.20;99.90;;;;;;5094288;28;20294;-80
2022/09/14 07:11:17;;;;;;;5.97;2.40;;;14.30;99.90;;;;;;5093581;28;20534;-79
2022/09/14 07:13:45;;;;;;;4.75;2.33;;;14.30;99.90;;;;;;5094408;28;20529;-79
2022/09/14 07:16:12;;;;;;;5.25;2.30;;;14.30;99.90;;;;;;5093762;28;20570;-79
2022/09/14 07:18:39;;;;;;;6.55;2.40;;;14.50;99.90;;;;;;5094131;28;20190;-79
2022/09/14 07:21:09;;;;;;;6.25;2.33;;;14.50;99.90;;;;;;5105472;27;20231;-79
2022/09/14 07:23:38;;;;;;;6.13;2.40;;;14.50;99.90;;;;;;5125730;27;20203;-79
2022/09/14 07:26:06;;;;;;;5.13;2.38;;;14.50;99.90;;;;;;5108253;28;20554;-79
2022/09/14 07:28:34;;;;;;;8.30;2.60;;;14.60;99.90;;;;;;5113813;28;20201;-80
2022/09/14 07:31:04;;;;;;;5.47;2.65;;;14.60;99.90;;;;;;5106506;28;20201;-79
2022/09/14 07:33:30;;;;;;;3.75;2.17;;;14.70;99.90;;;;;;5093057;28;20217;-72
2022/09/14 07:36:06;;;;;;;5.05;2.80;;;14.80;99.90;;;;;;5093636;28;20249;-72
2022/09/14 07:38:34;;;;;;;5.63;3.33;;;14.90;99.90;;;;;;5093676;28;20526;-72
2022/09/14 07:41:01;;;;;;;5.90;2.65;;;15.10;99.90;;;;;;5091894;28;20671;-72
2022/09/14 07:43:28;;;;;;;5.72;2.80;;;15.20;99.90;;;;;;5092962;28;20591;-72
2022/09/14 07:45:56;;;;;;;4.65;2.28;;;15.20;99.90;;;;;;5092722;28;20585;-72
2022/09/14 07:48:23;;;;;;;7.75;2.80;;;15.20;99.90;;;;;;5115676;27;20205;-72
2022/09/14 07:50:59;;;;;;;5.43;2.47;;;15.30;99.90;;;;;;5102283;28;20201;-72
2022/09/14 07:53:27;;;;;;;9.70;3.53;;;15.20;99.90;;;;;;5113672;28;20200;-72
2022/09/14 07:55:54;;;;;;;10.85;4.47;;;15.40;99.90;;;;;;5099264;28;20209;-72
2022/09/14 07:58:21;;;;;;;15.95;10.23;;;15.50;99.90;;;;;;5092887;28;20564;-72
2022/09/14 08:00:48;;;;;;;13.88;5.60;;;15.60;99.90;;;;;;5092179;28;20248;-72
2022/09/14 08:03:15;;;;;;;9.30;4.75;;;15.40;99.90;;;;;;5093505;28;20205;-72
2022/09/14 08:05:42;;;;;;;7.13;3.90;;;15.40;99.90;;;;;;5093082;28;20206;-72
2022/09/14 08:08:09;;;;;;;7.75;4.07;;;15.40;99.90;;;;;;5093177;28;20648;-72
2022/09/14 08:10:37;;;;;;;12.25;5.38;;;15.60;99.90;;;;;;5092498;28;20612;-72
2022/09/14 08:13:04;;;;;;;5.30;3.65;;;15.70;99.90;;;;;;5092973;28;20667;-72
2022/09/14 08:15:32;;;;;;;6.75;3.90;;;15.70;99.90;;;;;;5092366;28;20206;-72
2022/09/14 08:17:59;;;;;;;4.93;3.05;;;15.80;99.90;;;;;;5093142;28;20214;-72
2022/09/14 08:20:25;;;;;;;6.50;2.95;;;15.80;99.90;;;;;;5091951;28;20580;-72
2022/09/14 08:22:52;;;;;;;6.03;2.85;;;16.00;99.90;;;;;;5092901;28;20581;-72
2022/09/14 08:25:19;;;;;;;6.32;2.85;;;16.00;99.90;;;;;;5092525;28;20206;-71
2022/09/14 08:27:47;;;;;;;4.90;2.30;;;16.10;99.90;;;;;;5093180;28;20186;-72
2022/09/14 08:30:14;;;;;;;6.32;2.83;;;16.10;99.90;;;;;;5092318;28;20208;-72
2022/09/14 08:32:41;;;;;;;6.90;2.92;;;16.00;99.90;;;;;;5092926;28;20193;-72
2022/09/14 08:35:09;;;;;;;10.70;2.85;;;16.30;99.90;;;;;;5092570;28;20567;-72
2022/09/14 08:37:35;;;;;;;11.18;3.53;;;16.40;99.90;;;;;;5111164;28;20212;-72
2022/09/14 08:40:03;;;;;;;9.65;2.92;;;16.60;99.90;;;;;;5092479;28;20202;-72
2022/09/14 08:42:30;;;;;;;6.95;2.72;;;16.70;65.20;;;;;;5092870;28;20236;-72
2022/09/14 08:45:02;;;;;;;4.70;2.10;;;16.80;30.00;;;;;;5092364;28;20202;-72
2022/09/14 08:47:33;;;;;;;6.22;2.60;;;16.80;99.90;;;;;;5092622;28;20338;-72
2022/09/14 08:50:04;;;;;;;7.20;2.63;;;16.70;1.00;;;;;;5092117;28;20316;-72
2022/09/14 08:52:34;;;;;;;6.57;2.25;;;16.80;1.00;;;;;;5096099;28;20218;-72
2022/09/14 08:55:11;;;;;;;8.20;2.60;;;16.80;1.00;;;;;;5096811;28;20208;-72
2022/09/14 08:57:43;;;;;;;9.77;2.60;;;16.70;99.90;;;;;;5078262;28;20205;-72
2022/09/14 09:00:15;;;;;;;10.02;2.78;;;16.70;1.00;;;;;;5095414;28;20213;-72
2022/09/14 09:03:24;;;;;;;4.78;2.05;;;16.90;1.00;;;;;;5096923;28;20560;-72
2022/09/14 09:05:56;;;;;;;5.45;1.80;;;17.00;1.00;;;;;;5096316;28;20662;-72
2022/09/14 09:08:30;;;;;;;7.25;2.13;;;17.30;83.60;;;;;;5113554;27;20644;-72
2022/09/14 09:11:00;;;;;;;4.40;1.77;;;17.60;20.70;;;;;;5099748;28;20194;-72
2022/09/14 09:13:30;;;;;;;10.77;2.03;;;18.00;1.00;;;;;;5113040;28;20292;-72
2022/09/14 09:16:01;;;;;;;10.27;2.25;;;17.60;1.00;;;;;;5113118;28;20209;-72
2022/09/14 09:18:36;;;;;;;11.50;2.65;;;17.60;1.00;;;;;;5096488;28;20197;-72
2022/09/14 09:21:08;;;;;;;6.60;1.85;;;17.50;99.90;;;;;;5095807;28;20653;-73
2022/09/14 09:23:35;;;;;;;10.82;2.65;;;17.80;99.90;;;;;;5095882;28;20201;-72
2022/09/14 09:26:06;;;;;;;8.57;1.95;;;18.10;1.00;;;;;;5095841;28;20228;-72
2022/09/14 09:28:34;;;;;;;8.00;2.20;;;18.50;99.90;;;;;;5096232;28;20209;-72
2022/09/14 09:31:05;;;;;;;7.10;1.70;;;18.60;1.00;;;;;;5095020;28;20655;-72
2022/09/14 09:33:33;;;;;;;2.00;1.38;;;18.80;1.00;;;;;;5095633;28;20554;-73
2022/09/14 09:36:00;;;;;;;8.25;1.83;;;18.70;1.00;;;;;;5095968;28;20576;-73
2022/09/14 09:38:29;;;;;;;7.03;1.33;;;19.00;99.90;;;;;;5095554;28;20572;-73
2022/09/14 09:40:59;;;;;;;7.75;1.65;;;19.20;99.90;;;;;;5095656;28;20561;-73
2022/09/14 09:43:26;;;;;;;8.68;1.98;;;19.10;99.90;;;;;;5103822;27;20662;-73
2022/09/14 09:45:59;;;;;;;7.82;1.40;;;19.20;99.90;;;;;;5101138;27;20197;-73
2022/09/14 09:48:31;;;;;;;6.75;1.60;;;18.70;1.00;;;;;;5101570;27;20194;-73
2022/09/14 09:51:07;;;;;;;3.72;1.20;;;18.90;1.00;;;;;;5105430;28;20287;-73
2022/09/14 09:53:37;;;;;;;8.02;1.40;;;18.80;1.00;;;;;;5111726;27;20196;-72
2022/09/14 09:56:05;;;;;;;7.82;1.40;;;18.70;99.90;;;;;;5107383;28;20196;-73
2022/09/14 09:58:36;;;;;;;6.55;1.38;;;18.70;1.00;;;;;;5113259;28;20193;-73
2022/09/14 10:01:06;;;;;;;6.57;1.52;;;18.30;1.00;;;;;;5094299;28;20251;-72
2022/09/14 10:03:37;;;;;;;3.35;1.23;;;18.50;99.90;;;;;;5094793;28;20205;-72
2022/09/14 10:06:10;;;;;;;6.00;1.10;;;18.40;99.90;;;;;;5095669;28;20206;-73
2022/09/14 10:08:44;;;;;;;2.00;1.00;;;18.30;1.00;;;;;;5095566;28;20209;-72
2022/09/14 10:11:31;;;;;;;6.30;1.80;;;18.30;1.00;;;;;;5094886;28;20569;-73
2022/09/14 10:13:59;;;;;;;3.35;1.50;;;18.40;1.00;;;;;;5094824;28;20206;-72
2022/09/14 10:16:30;;;;;;;5.95;1.50;;;18.40;1.00;;;;;;5095156;28;20202;-73
2022/09/14 10:19:01;;;;;;;3.40;1.40;;;18.60;1.00;;;;;;5094874;28;20210;-73
2022/09/14 10:21:30;;;;;;;6.00;1.27;;;18.90;1.00;;;;;;5094434;28;20288;-73
2022/09/14 10:24:06;;;;;;;7.13;1.67;;;18.60;1.00;;;;;;5095011;28;20636;-73
2022/09/14 10:26:37;;;;;;;5.43;1.60;;;18.60;1.00;;;;;;5095088;28;20555;-73
2022/09/14 10:29:34;;;;;;;7.38;1.60;;;18.70;1.00;;;;;;5106381;27;20196;-73
2022/09/14 10:32:06;;;;;;;4.60;1.35;;;18.40;99.90;;;;;;5107760;28;20193;-72
2022/09/14 10:34:34;;;;;;;7.65;1.42;;;18.30;1.00;;;;;;5114868;28;20639;-72
2022/09/14 10:37:13;;;;;;;7.65;1.70;;;18.30;1.00;;;;;;5098510;28;20213;-72
2022/09/14 10:39:46;;;;;;;3.60;1.27;;;18.30;1.00;;;;;;5094844;28;20205;-72
2022/09/14 10:42:25;;;;;;;7.45;1.25;;;18.30;1.00;;;;;;5094171;28;20315;-72
2022/09/14 10:45:07;;;;;;;5.10;1.45;;;18.40;1.00;;;;;;5094200;28;20209;-73
2022/09/14 10:48:05;;;;;;;8.27;1.50;;;18.30;1.00;;;;;;5103471;28;20204;-73
2022/09/14 10:50:49;;;;;;;5.03;1.20;;;18.40;99.90;;;;;;5073894;28;20241;-73
2022/09/14 10:53:30;;;;;;;3.60;1.20;;;18.50;1.00;;;;;;5114084;28;20208;-73
2022/09/14 10:56:02;;;;;;;4.05;1.50;;;18.40;1.00;;;;;;5103343;28;20212;-72
2022/09/14 10:58:39;;;;;;;3.95;1.33;;;18.40;99.90;;;;;;5128795;27;20202;-72
2022/09/14 11:01:19;;;;;;;4.80;1.25;;;18.50;99.90;;;;;;5114090;28;20188;-72
2022/09/14 11:03:57;;;;;;;5.25;1.50;;;18.50;99.90;;;;;;5085582;28;20609;-72
2022/09/14 11:06:38;;;;;;;3.30;1.02;;;18.50;1.00;;;;;;5077041;28;20212;-72
2022/09/14 11:09:14;;;;;;;4.63;1.13;;;18.40;99.90;;;;;;5094357;28;20221;-72
2022/09/14 11:11:53;;;;;;;5.20;1.40;;;18.50;6.40;;;;;;5075544;28;20212;-72
2022/09/14 11:14:34;;;;;;;7.75;1.40;;;18.60;1.00;;;;;;5092143;28;20201;-72
2022/09/14 11:17:20;;;;;;;4.05;1.67;;;18.60;1.00;;;;;;5094913;28;20209;-72
2022/09/14 11:19:58;;;;;;;4.45;1.42;;;18.50;1.00;;;;;;5114125;28;20211;-72
2022/09/14 11:22:33;;;;;;;4.40;1.20;;;18.50;1.00;;;;;;5095767;28;20221;-72
2022/09/14 11:25:06;;;;;;;4.80;1.13;;;18.50;99.90;;;;;;5095958;28;20635;-73
2022/09/14 11:27:40;;;;;;;5.07;1.23;;;18.80;99.90;;;;;;5113087;28;20216;-72
2022/09/14 11:30:13;;;;;;;7.40;1.40;;;19.00;99.90;;;;;;5110008;28;20197;-72
2022/09/14 11:32:45;;;;;;;4.13;1.33;;;18.80;1.00;;;;;;5113879;28;20262;-72
2022/09/14 11:35:17;;;;;;;3.53;1.17;;;18.70;1.00;;;;;;5093290;28;20572;-72
2022/09/14 11:37:50;;;;;;;4.10;1.15;;;18.50;99.90;;;;;;5093383;28;20210;-72
2022/09/14 11:40:22;;;;;;;5.82;1.40;;;18.60;1.00;;;;;;5093212;28;20209;-72
2022/09/14 11:42:56;;;;;;;1.98;1.20;;;18.60;99.90;;;;;;5093157;28;20233;-72
2022/09/14 11:45:28;;;;;;;3.95;1.15;;;18.60;1.00;;;;;;5093435;28;20645;-79
2022/09/14 11:48:05;;;;;;;2.00;0.75;;;18.60;99.90;;;;;;5093690;28;20209;-79
2022/09/14 11:50:34;;;;;;;4.72;1.25;;;18.60;1.00;;;;;;5092549;28;20678;-79
2022/09/14 11:53:11;;;;;;;5.72;1.30;;;18.60;1.00;;;;;;5093441;28;20580;-79
2022/09/14 11:55:40;;;;;;;4.35;1.23;;;18.50;99.90;;;;;;5110217;27;20279;-79
2022/09/14 11:58:13;;;;;;;3.78;1.08;;;18.50;1.00;;;;;;5112581;27;20269;-79
2022/09/14 12:01:00;;;;;;;7.32;1.38;;;18.50;1.00;;;;;;5108737;27;20204;-79
2022/09/14 12:03:45;;;;;;;1.92;0.93;;;18.60;1.00;;;;;;5109920;28;20247;-78
2022/09/14 12:06:44;;;;;;;4.78;1.05;;;18.50;1.00;;;;;;5103664;28;20544;-73
2022/09/14 12:09:41;;;;;;;4.30;0.98;;;18.50;1.00;;;;;;5085872;28;20212;-72
2022/09/14 12:12:37;;;;;;;4.43;1.38;;;18.60;1.00;;;;;;5092828;28;20219;-72
2022/09/14 12:15:31;;;;;;;2.03;0.93;;;18.60;1.00;;;;;;5092947;28;20201;-72
2022/09/14 12:18:21;;;;;;;2.60;0.90;;;18.60;1.00;;;;;;5082839;28;20209;-72
2022/09/14 12:20:51;;;;;;;6.03;1.40;;;18.60;99.90;;;;;;5092737;28;20185;-72
2022/09/14 12:23:25;;;;;;;4.35;1.20;;;18.60;99.90;;;;;;5093020;28;20667;-72
2022/09/14 12:26:05;;;;;;;3.83;1.08;;;18.80;99.90;;;;;;5096232;28;20201;-72
2022/09/14 12:28:46;;;;;;;4.85;1.27;;;18.90;99.90;;;;;;5109609;28;20204;-73
2022/09/14 12:31:34;;;;;;;3.03;1.05;;;18.80;1.00;;;;;;5073958;28;20216;-72
2022/09/14 12:34:26;;;;;;;8.55;1.17;;;18.70;99.90;;;;;;5092784;28;20233;-72
2022/09/14 12:37:29;;;;;;;3.05;1.10;;;18.70;1.00;;;;;;5093033;28;20584;-73
2022/09/14 12:40:35;;;;;;;5.30;1.20;;;18.60;1.00;;;;;;5124329;28;20669;-72
2022/09/14 12:43:49;;;;;;;3.65;1.13;;;18.50;1.00;;;;;;5004568;28;20236;-72
2022/09/14 12:46:47;;;;;;;2.75;1.10;;;18.40;1.00;;;;;;5113488;28;20192;-72
2022/09/14 12:49:35;;;;;;;5.10;1.25;;;18.40;1.00;;;;;;5010985;28;20245;-72
2022/09/14 12:52:20;;;;;;;6.68;1.20;;;18.40;1.00;;;;;;5106261;28;20192;-72
2022/09/14 12:55:03;;;;;;;2.75;1.15;;;18.30;1.00;;;;;;5122064;28;20540;-72
2022/09/14 12:57:39;;;;;;;3.85;1.13;;;18.40;1.00;;;;;;5113173;28;20200;-72
2022/09/14 13:00:14;;;;;;;7.45;1.10;;;18.40;1.00;;;;;;5101154;28;20205;-72
2022/09/14 13:03:12;;;;;;;3.13;1.30;;;18.50;99.90;;;;;;5113735;28;20231;-71
2022/09/14 13:05:44;;;;;;;7.30;1.80;;;18.50;99.90;;;;;;5104070;28;20197;-71
2022/09/14 13:08:17;;;;;;;4.55;1.13;;;18.30;28.80;;;;;;5102231;28;20210;-72
2022/09/14 13:10:47;;;;;;;4.28;0.93;;;18.40;99.90;;;;;;5099372;28;20674;-71